createdAt,value
2022-08-05T00:02:24.675Z,19.15
2022-08-05T00:04:55.604Z,19.19
2022-08-05T00:07:59.762Z,19.17
2022-08-05T00:10:12.633Z,18.97
2022-08-05T00:12:55.932Z,18.96
2022-08-05T00:15:55.374Z,19.02
2022-08-05T00:18:21.655Z,19.07
2022-08-05T00:20:50.832Z,19.11
2022-08-05T00:23:44.548Z,18.96
2022-08-05T00:26:07.870Z,19.00
2022-08-05T00:28:36.740Z,19.05
2022-08-05T00:31:05.021Z,18.86
2022-08-05T00:34:53.818Z,18.85
2022-08-05T00:37:10.726Z,18.83
2022-08-05T00:39:14.275Z,18.84
2022-08-05T00:41:55.345Z,18.77
2022-08-05T00:44:30.802Z,18.68
2022-08-05T00:47:04.271Z,18.60
2022-08-05T00:49:44.446Z,18.56
2022-08-05T00:52:28.110Z,18.51
2022-08-05T00:54:56.859Z,18.55
2022-08-05T00:57:38.105Z,18.52
2022-08-05T01:00:11.205Z,18.55
2022-08-05T01:02:41.355Z,18.51
2022-08-05T01:05:12.877Z,18.54
2022-08-05T01:08:29.909Z,18.50
2022-08-05T01:10:36.555Z,18.63
2022-08-05T01:13:13.133Z,18.66
2022-08-05T01:15:54.721Z,18.50
2022-08-05T01:18:27.517Z,18.47
2022-08-05T01:21:02.572Z,18.53
2022-08-05T01:23:42.630Z,18.50
2022-08-05T01:26:30.991Z,18.43
2022-08-05T01:29:05.306Z,18.41
2022-08-05T01:31:44.682Z,18.40
2022-08-05T01:34:17.952Z,18.40
2022-08-05T01:36:47.872Z,18.42
2022-08-05T01:39:46.487Z,18.38
2022-08-05T01:42:09.771Z,18.41
2022-08-05T01:44:40.858Z,18.44
2022-08-05T01:47:11.316Z,18.53
2022-08-05T01:50:00.235Z,18.51
2022-08-05T01:52:31.310Z,18.38
2022-08-05T01:55:04.364Z,18.37
2022-08-05T01:58:18.775Z,18.46
2022-08-05T02:00:30.253Z,18.49
2022-08-05T02:03:03.660Z,18.36
2022-08-05T02:05:35.982Z,18.39
2022-08-05T02:08:05.023Z,18.48
2022-08-05T02:10:38.635Z,18.34
2022-08-05T02:13:16.076Z,18.39
2022-08-05T02:15:51.115Z,18.44
2022-08-05T02:18:35.142Z,18.37
2022-08-05T02:21:14.747Z,18.49
2022-08-05T02:23:48.600Z,18.48
2022-08-05T02:26:21.916Z,18.45
2022-08-05T02:28:51.202Z,18.51
2022-08-05T02:31:24.878Z,18.52
2022-08-05T02:33:58.085Z,18.55
2022-08-05T02:36:31.442Z,18.49
2022-08-05T02:39:02.941Z,18.46
2022-08-05T02:41:43.245Z,18.39
2022-08-05T02:44:22.879Z,18.45
2022-08-05T02:46:59.999Z,18.39
2022-08-05T02:49:36.411Z,18.27
2022-08-05T02:52:08.785Z,18.38
2022-08-05T02:54:41.668Z,18.38
2022-08-05T02:58:19.641Z,18.29
2022-08-05T03:00:01.509Z,18.32
2022-08-05T03:02:35.640Z,18.32
2022-08-05T03:05:04.831Z,18.19
2022-08-05T03:08:00.372Z,18.19
2022-08-05T03:10:25.175Z,18.21
2022-08-05T03:12:54.284Z,18.20
2022-08-05T03:15:24.347Z,18.36
2022-08-05T03:17:55.634Z,18.33
2022-08-05T03:20:24.726Z,18.29
2022-08-05T03:22:57.282Z,18.30
2022-08-05T03:25:32.588Z,18.32
2022-08-05T03:28:18.773Z,18.37
2022-08-05T03:30:49.497Z,18.42
2022-08-05T03:33:20.442Z,18.40
2022-08-05T03:35:50.365Z,18.35
2022-08-05T03:38:32.586Z,18.32
2022-08-05T03:41:08.396Z,18.31
2022-08-05T03:44:09.364Z,18.29
2022-08-05T03:46:29.687Z,18.37
2022-08-05T03:49:02.117Z,18.31
2022-08-05T03:52:36.629Z,18.27
2022-08-05T03:55:53.870Z,18.23
2022-08-05T03:57:41.341Z,18.19
2022-08-05T04:00:12.642Z,18.20
2022-08-05T04:02:57.914Z,18.18
2022-08-05T04:05:34.456Z,18.24
2022-08-05T04:08:29.921Z,18.16
2022-08-05T04:10:57.427Z,18.28
2022-08-05T04:13:26.123Z,18.33
2022-08-05T04:16:14.942Z,18.34
2022-08-05T04:18:42.996Z,18.35
2022-08-05T04:22:09.623Z,18.31
2022-08-05T04:24:09.100Z,18.27
2022-08-05T04:26:47.007Z,18.23
2022-08-05T04:29:15.021Z,18.20
2022-08-05T04:31:43.123Z,18.12
2022-08-05T04:34:31.205Z,18.06
2022-08-05T04:37:00.992Z,18.01
2022-08-05T04:39:32.126Z,18.04
2022-08-05T04:42:00.546Z,18.08
2022-08-05T04:44:31.635Z,18.15
2022-08-05T04:46:59.789Z,18.09
2022-08-05T04:49:38.348Z,18.15
2022-08-05T04:52:08.980Z,18.19
2022-08-05T04:54:37.015Z,18.22
2022-08-05T04:57:05.416Z,18.24
2022-08-05T04:59:39.131Z,18.16
2022-08-05T05:02:37.629Z,18.17
2022-08-05T05:05:02.728Z,18.21
2022-08-05T05:07:35.642Z,18.33
2022-08-05T05:10:06.519Z,18.34
2022-08-05T05:12:36.698Z,18.31
2022-08-05T05:15:10.938Z,18.37
2022-08-05T05:17:56.335Z,18.40
2022-08-05T05:20:28.537Z,18.29
2022-08-05T05:22:58.981Z,18.35
2022-08-05T05:25:32.598Z,18.32
2022-08-05T05:28:08.774Z,18.34
2022-08-05T05:30:38.090Z,18.32
2022-08-05T05:33:14.015Z,18.44
2022-08-05T05:35:45.555Z,18.38
2022-08-05T05:38:35.024Z,18.48
2022-08-05T05:41:03.137Z,18.59
2022-08-05T05:43:58.619Z,18.62
2022-08-05T05:46:19.156Z,18.59
2022-08-05T05:48:49.956Z,18.57
2022-08-05T05:51:23.337Z,18.60
2022-08-05T05:53:58.743Z,18.58
2022-08-05T05:56:34.379Z,18.52
2022-08-05T05:59:05.257Z,18.44
2022-08-05T06:01:37.551Z,18.39
2022-08-05T06:04:11.709Z,18.44
2022-08-05T06:06:42.666Z,18.41
2022-08-05T06:09:17.693Z,18.44
2022-08-05T06:12:02.117Z,18.42
2022-08-05T06:14:31.537Z,18.45
2022-08-05T06:17:02.029Z,18.49
2022-08-05T06:19:57.114Z,18.53
2022-08-05T06:22:29.303Z,18.58
2022-08-05T06:24:58.948Z,18.63
2022-08-05T06:28:09.008Z,18.52
2022-08-05T06:30:20.087Z,18.58
2022-08-05T06:32:50.745Z,18.66
2022-08-05T06:36:04.234Z,18.60
2022-08-05T06:38:11.228Z,18.66
2022-08-05T06:40:42.059Z,18.65
2022-08-05T06:43:57.221Z,18.75
2022-08-05T06:46:03.789Z,18.67
2022-08-05T06:48:52.683Z,18.74
2022-08-05T06:51:30.263Z,18.83
2022-08-05T06:53:59.984Z,18.77
2022-08-05T06:56:30.126Z,18.88
2022-08-05T06:59:01.667Z,18.87
2022-08-05T07:01:32.239Z,18.88
2022-08-05T07:04:03.187Z,18.89
2022-08-05T07:06:32.008Z,18.95
2022-08-05T07:09:04.082Z,18.97
2022-08-05T07:11:36.757Z,18.99
2022-08-05T07:14:29.395Z,19.04
2022-08-05T07:18:08.591Z,19.24
2022-08-05T07:22:38.861Z,19.33
2022-08-05T07:25:22.718Z,19.39
2022-08-05T07:28:04.244Z,19.43
2022-08-05T07:30:38.806Z,19.49
2022-08-05T07:33:10.685Z,19.45
2022-08-05T07:36:03.257Z,19.53
2022-08-05T07:38:42.819Z,19.56
2022-08-05T07:42:08.331Z,19.55
2022-08-05T07:44:04.182Z,19.79
2022-08-05T07:46:33.821Z,19.83
2022-08-05T07:49:06.245Z,19.89
2022-08-05T07:51:40.950Z,19.93
2022-08-05T07:54:23.352Z,20.06
2022-08-05T07:57:13.932Z,20.00
2022-08-05T07:59:46.916Z,20.29
2022-08-05T08:02:17.843Z,20.37
2022-08-05T08:04:48.730Z,20.45
2022-08-05T08:07:22.925Z,20.38
2022-08-05T08:09:54.848Z,20.35
2022-08-05T08:12:35.103Z,20.27
2022-08-05T08:15:15.132Z,20.38
2022-08-05T08:17:50.565Z,20.58
2022-08-05T08:20:45.358Z,20.73
2022-08-05T08:24:00.094Z,20.77
2022-08-05T08:26:00.673Z,21.23
2022-08-05T08:28:35.591Z,21.50
2022-08-05T08:31:07.440Z,21.47
2022-08-05T08:33:37.564Z,21.60
2022-08-05T08:38:56.943Z,22.11
2022-08-05T08:41:52.361Z,22.15
2022-08-05T08:45:18.248Z,22.25
2022-08-05T08:47:47.453Z,22.35
2022-08-05T08:50:23.438Z,22.37
2022-08-05T08:52:51.830Z,22.42
2022-08-05T08:56:02.191Z,22.51
2022-08-05T08:58:12.987Z,22.40
2022-08-05T09:00:42.343Z,22.65
2022-08-05T09:03:15.915Z,22.55
2022-08-05T09:06:07.734Z,22.64
2022-08-05T09:08:40.316Z,22.62
2022-08-05T09:11:12.091Z,22.46
2022-08-05T09:14:00.871Z,22.45
2022-08-05T09:16:31.585Z,22.48
2022-08-05T09:19:01.100Z,22.59
2022-08-05T09:22:22.474Z,22.41
2022-08-05T09:24:24.304Z,22.34
2022-08-05T09:26:56.242Z,22.44
2022-08-05T09:29:47.830Z,22.40
2022-08-05T09:32:45.996Z,22.27
2022-08-05T09:35:26.571Z,22.57
2022-08-05T09:38:12.434Z,22.66
2022-08-05T09:40:52.386Z,22.76
2022-08-05T09:43:40.977Z,22.90
2022-08-05T09:46:27.383Z,22.90
2022-08-05T09:49:07.990Z,23.04
2022-08-05T09:51:48.824Z,23.17
2022-08-05T09:54:21.350Z,23.27
2022-08-05T09:57:01.232Z,23.19
2022-08-05T09:59:35.118Z,23.68
2022-08-05T10:02:06.549Z,23.85
2022-08-05T10:04:41.028Z,24.13
2022-08-05T10:07:19.975Z,24.20
2022-08-05T10:10:14.282Z,24.46
2022-08-05T10:12:49.317Z,24.69
2022-08-05T10:15:21.033Z,24.65
2022-08-05T10:18:08.750Z,25.41
2022-08-05T10:20:39.486Z,25.45
2022-08-05T10:23:22.196Z,25.67
2022-08-05T10:26:02.250Z,25.70
2022-08-05T10:28:32.003Z,25.50
2022-08-05T10:32:54.989Z,25.50
2022-08-05T10:33:54.693Z,25.46
2022-08-05T10:36:25.979Z,25.44
2022-08-05T10:39:05.314Z,25.38
2022-08-05T10:41:45.235Z,25.01
2022-08-05T10:44:20.022Z,24.64
2022-08-05T10:46:57.266Z,24.87
2022-08-05T10:49:33.364Z,24.97
2022-08-05T10:52:05.015Z,25.22
2022-08-05T10:54:55.873Z,25.28
2022-08-05T10:57:30.936Z,25.40
2022-08-05T11:00:19.845Z,25.31
2022-08-05T11:03:26.006Z,25.81
2022-08-05T11:06:06.339Z,26.27
2022-08-05T11:08:39.231Z,25.97
2022-08-05T11:11:52.229Z,26.22
2022-08-05T11:14:57.458Z,26.57
2022-08-05T11:17:58.883Z,27.07
2022-08-05T11:20:44.537Z,26.34
2022-08-05T11:24:04.924Z,26.23
2022-08-05T11:26:35.281Z,26.22
2022-08-05T11:29:13.947Z,26.00
2022-08-05T11:31:57.937Z,26.14
2022-08-05T11:34:51.574Z,26.27
2022-08-05T11:38:29.003Z,26.36
2022-08-05T11:41:35.334Z,26.02
2022-08-05T11:44:05.516Z,25.81
2022-08-05T11:47:09.615Z,25.63
2022-08-05T11:49:27.755Z,25.80
2022-08-05T11:51:57.692Z,26.01
2022-08-05T11:54:33.896Z,26.02
2022-08-05T11:57:07.943Z,25.75
2022-08-05T11:59:49.705Z,24.93
2022-08-05T12:02:31.317Z,24.84
2022-08-05T12:05:07.236Z,25.09
2022-08-05T12:08:09.060Z,25.19
2022-08-05T12:10:42.883Z,25.45
2022-08-05T12:13:15.602Z,25.64
2022-08-05T12:15:49.622Z,25.16
2022-08-05T12:18:32.865Z,25.15
2022-08-05T12:21:11.270Z,25.19
2022-08-05T12:23:43.176Z,25.36
2022-08-05T12:26:11.547Z,25.58
2022-08-05T12:28:39.797Z,25.50
2022-08-05T12:31:08.298Z,25.34
2022-08-05T12:33:38.823Z,25.58
2022-08-05T12:36:09.348Z,25.94
2022-08-05T12:38:39.863Z,26.36
2022-08-05T12:41:13.213Z,26.31
2022-08-05T12:43:56.195Z,26.37
2022-08-05T12:46:29.487Z,25.64
2022-08-05T12:49:13.672Z,25.36
2022-08-05T12:52:10.415Z,25.93
2022-08-05T12:54:34.974Z,26.44
2022-08-05T12:57:09.178Z,26.62
2022-08-05T13:00:09.058Z,26.57
2022-08-05T13:02:37.400Z,26.63
2022-08-05T13:05:12.736Z,26.31
2022-08-05T13:08:00.395Z,26.20
2022-08-05T13:10:33.114Z,25.98
2022-08-05T13:13:03.088Z,26.22
2022-08-05T13:15:41.414Z,26.21
2022-08-05T13:18:20.142Z,26.01
2022-08-05T13:20:50.423Z,25.89
2022-08-05T13:23:22.691Z,25.96
2022-08-05T13:25:59.321Z,26.31
2022-08-05T13:28:28.013Z,26.45
2022-08-05T13:30:57.205Z,26.65
2022-08-05T13:34:22.941Z,26.62
2022-08-05T13:36:15.132Z,26.27
2022-08-05T13:38:44.370Z,26.14
2022-08-05T13:41:20.113Z,27.00
2022-08-05T13:43:54.847Z,27.02
2022-08-05T13:46:44.055Z,27.37
2022-08-05T13:49:13.660Z,27.22
2022-08-05T13:51:45.864Z,27.47
2022-08-05T13:54:16.155Z,28.18
2022-08-05T13:56:51.567Z,28.21
2022-08-05T13:59:24.022Z,28.12
2022-08-05T14:01:58.383Z,27.66
2022-08-05T14:04:49.145Z,27.57
2022-08-05T14:07:26.175Z,28.05
2022-08-05T14:10:12.384Z,28.34
2022-08-05T14:12:42.743Z,28.51
2022-08-05T14:16:05.295Z,28.83
2022-08-05T14:18:00.983Z,28.24
2022-08-05T14:20:30.598Z,28.26
2022-08-05T14:23:00.376Z,28.04
2022-08-05T14:25:30.140Z,28.25
2022-08-05T14:27:58.898Z,28.45
2022-08-05T14:30:28.241Z,28.40
2022-08-05T14:32:57.355Z,28.76
2022-08-05T14:35:36.882Z,28.82
2022-08-05T14:38:32.561Z,28.34
2022-08-05T14:41:06.782Z,28.20
2022-08-05T14:44:01.810Z,28.27
2022-08-05T14:46:28.819Z,28.36
2022-08-05T14:49:03.468Z,28.62
2022-08-05T14:51:36.262Z,28.98
2022-08-05T14:54:28.785Z,28.75
2022-08-05T14:56:56.378Z,28.19
2022-08-05T14:59:24.848Z,27.99
2022-08-05T15:01:53.845Z,28.30
2022-08-05T15:04:23.229Z,28.39
2022-08-05T15:06:55.586Z,28.19
2022-08-05T15:09:51.770Z,27.33
2022-08-05T15:12:16.311Z,27.36
2022-08-05T15:14:50.017Z,27.93
2022-08-05T15:17:45.634Z,27.48
2022-08-05T15:20:18.801Z,27.50
2022-08-05T15:22:54.550Z,27.18
2022-08-05T15:25:41.413Z,27.32
2022-08-05T15:28:16.172Z,27.27
2022-08-05T15:30:45.726Z,27.16
2022-08-05T15:33:56.488Z,27.41
2022-08-05T15:36:04.078Z,26.30
2022-08-05T15:38:36.488Z,26.68
2022-08-05T15:41:22.229Z,26.72
2022-08-05T15:43:55.053Z,26.75
2022-08-05T15:46:25.099Z,26.63
2022-08-05T15:49:01.177Z,26.47
2022-08-05T15:52:10.052Z,25.86
2022-08-05T15:54:34.532Z,25.73
2022-08-05T15:57:07.721Z,25.61
2022-08-05T15:59:36.397Z,25.73
2022-08-05T16:02:09.477Z,25.67
2022-08-05T16:04:42.551Z,25.54
2022-08-05T16:07:11.030Z,25.52
2022-08-05T16:09:41.543Z,25.10
2022-08-05T16:12:12.207Z,24.57
2022-08-05T16:14:40.497Z,25.13
2022-08-05T16:17:09.394Z,25.00
2022-08-05T16:20:04.337Z,25.03
2022-08-05T16:22:27.775Z,25.07
2022-08-05T16:25:08.120Z,24.74
2022-08-05T16:28:00.670Z,24.97
2022-08-05T16:30:29.130Z,24.47
2022-08-05T16:32:57.743Z,24.43
2022-08-05T16:35:28.514Z,24.61
2022-08-05T16:38:15.171Z,24.32
2022-08-05T16:40:55.076Z,24.42
2022-08-05T16:43:31.476Z,24.06
2022-08-05T16:46:03.930Z,24.01
2022-08-05T16:48:41.167Z,23.85
2022-08-05T16:51:11.018Z,23.67
2022-08-05T16:54:03.885Z,23.30
2022-08-05T16:56:30.601Z,23.50
2022-08-05T16:59:08.209Z,23.20
2022-08-05T17:01:53.937Z,23.01
2022-08-05T17:04:26.314Z,22.93
2022-08-05T17:06:55.615Z,22.91
2022-08-05T17:09:25.159Z,23.18
2022-08-05T17:11:59.783Z,23.16
2022-08-05T17:14:36.876Z,22.99
2022-08-05T17:17:14.379Z,22.96
2022-08-05T17:19:46.096Z,23.18
2022-08-05T17:22:24.713Z,23.05
2022-08-05T17:24:58.160Z,22.98
2022-08-05T17:27:27.261Z,23.01
2022-08-05T17:30:11.891Z,22.82
2022-08-05T17:32:46.901Z,22.64
2022-08-05T17:35:21.028Z,22.24
2022-08-05T17:37:49.505Z,22.28
2022-08-05T17:40:22.468Z,22.29
2022-08-05T17:42:52.962Z,22.18
2022-08-05T17:45:25.127Z,22.39
2022-08-05T17:47:57.735Z,21.84
2022-08-05T17:50:28.104Z,21.82
2022-08-05T17:52:59.475Z,21.79
2022-08-05T17:55:37.169Z,22.07
2022-08-05T17:58:12.546Z,21.91
2022-08-05T18:00:45.203Z,21.74
2022-08-05T18:03:39.173Z,21.69
2022-08-05T18:06:11.223Z,21.68
2022-08-05T18:08:40.622Z,21.69
2022-08-05T18:11:24.793Z,21.50
2022-08-05T18:14:04.265Z,21.23
2022-08-05T18:16:34.695Z,21.01
2022-08-05T18:19:04.093Z,20.68
2022-08-05T18:22:08.397Z,20.58
2022-08-05T18:24:20.974Z,20.53
2022-08-05T18:26:49.283Z,20.56
2022-08-05T18:29:17.346Z,20.52
2022-08-05T18:32:02.999Z,20.17
2022-08-05T18:34:41.014Z,20.31
2022-08-05T18:37:12.031Z,20.04
2022-08-05T18:40:30.993Z,19.92
2022-08-05T18:42:29.667Z,19.72
2022-08-05T18:44:57.885Z,19.67
2022-08-05T18:47:29.659Z,19.70
2022-08-05T18:50:19.238Z,19.47
2022-08-05T18:52:50.877Z,19.39
2022-08-05T18:55:22.282Z,19.26
2022-08-05T18:57:53.227Z,19.18
2022-08-05T19:00:27.079Z,19.20
2022-08-05T19:03:03.750Z,19.12
2022-08-05T19:06:12.872Z,18.94
2022-08-05T19:08:30.620Z,18.91
2022-08-05T19:11:04.892Z,18.84
2022-08-05T19:13:36.932Z,18.84
2022-08-05T19:16:25.057Z,18.78
2022-08-05T19:18:57.453Z,18.84
2022-08-05T19:21:29.568Z,18.73
2022-08-05T19:24:08.937Z,18.86
2022-08-05T19:26:54.702Z,18.65
2022-08-05T19:29:35.510Z,18.63
2022-08-05T19:32:05.573Z,18.55
2022-08-05T19:34:38.461Z,18.53
2022-08-05T19:37:06.710Z,18.32
2022-08-05T19:39:46.000Z,18.35
2022-08-05T19:42:35.736Z,18.21
2022-08-05T19:45:05.902Z,18.02
2022-08-05T19:47:37.599Z,17.93
2022-08-05T19:50:10.571Z,18.05
2022-08-05T19:52:41.156Z,17.97
2022-08-05T19:56:14.915Z,18.11
2022-08-05T19:58:04.067Z,18.11
2022-08-05T20:00:42.751Z,18.12
2022-08-05T20:03:11.105Z,17.89
2022-08-05T20:05:50.198Z,17.90
2022-08-05T20:08:19.857Z,17.94
2022-08-05T20:10:49.547Z,17.97
2022-08-05T20:13:18.465Z,17.93
2022-08-05T20:16:06.816Z,17.77
2022-08-05T20:18:36.162Z,17.66
2022-08-05T20:21:07.204Z,17.56
2022-08-05T20:23:40.738Z,17.61
2022-08-05T20:26:19.756Z,17.44
2022-08-05T20:28:50.612Z,17.47
2022-08-05T20:31:21.665Z,17.47
2022-08-05T20:33:51.874Z,17.44
2022-08-05T20:36:24.074Z,17.41
2022-08-05T20:38:54.022Z,17.39
2022-08-05T20:41:44.420Z,17.42
2022-08-05T20:44:17.641Z,17.28
2022-08-05T20:46:48.306Z,17.19
2022-08-05T20:49:18.439Z,17.27
2022-08-05T20:51:54.576Z,17.18
2022-08-05T20:54:22.856Z,17.11
2022-08-05T20:56:53.094Z,16.99
2022-08-05T20:59:27.131Z,16.86
2022-08-05T21:02:09.656Z,16.83
2022-08-05T21:04:39.079Z,16.65
2022-08-05T21:07:09.150Z,16.79
2022-08-05T21:09:37.254Z,16.59
2022-08-05T21:12:19.815Z,16.47
2022-08-05T21:14:48.026Z,16.49
2022-08-05T21:17:16.461Z,16.45
2022-08-05T21:19:48.066Z,16.40
2022-08-05T21:22:21.894Z,16.36
2022-08-05T21:24:52.512Z,16.30
2022-08-05T21:27:24.656Z,16.22
2022-08-05T21:29:55.520Z,16.18
2022-08-05T21:32:26.805Z,16.13
2022-08-05T21:34:56.045Z,16.13
2022-08-05T21:37:52.683Z,16.07
2022-08-05T21:40:21.953Z,16.04
2022-08-05T21:42:52.079Z,16.02
2022-08-05T21:45:24.439Z,15.97
2022-08-05T21:47:57.780Z,15.85
2022-08-05T21:50:27.282Z,15.88
2022-08-05T21:52:59.040Z,15.75
2022-08-05T21:56:00.793Z,15.77
2022-08-05T21:58:30.660Z,15.83
2022-08-05T22:01:00.890Z,15.77
2022-08-05T22:03:52.560Z,15.76
2022-08-05T22:06:22.578Z,15.76
2022-08-05T22:08:53.515Z,15.70
2022-08-05T22:11:34.966Z,15.67
2022-08-05T22:14:32.517Z,15.67
2022-08-05T22:16:56.970Z,15.66
2022-08-05T22:20:01.964Z,15.66
2022-08-05T22:22:16.044Z,15.57
2022-08-05T22:25:03.258Z,15.48
2022-08-05T22:28:08.858Z,15.49
2022-08-05T22:30:35.130Z,15.48
2022-08-05T22:33:04.181Z,15.40
2022-08-05T22:35:48.961Z,15.33
2022-08-05T22:38:18.995Z,15.24
2022-08-05T22:40:55.010Z,15.17
2022-08-05T22:43:36.689Z,15.16
2022-08-05T22:46:13.255Z,15.24
2022-08-05T22:48:51.803Z,15.20
2022-08-05T22:51:23.239Z,15.10
2022-08-05T22:54:08.011Z,15.06
2022-08-05T22:56:39.838Z,15.00
2022-08-05T22:59:45.082Z,14.99
2022-08-05T23:02:05.998Z,14.95
2022-08-05T23:04:36.447Z,14.99
2022-08-05T23:07:06.920Z,14.96
2022-08-05T23:09:58.281Z,14.90
2022-08-05T23:12:24.973Z,14.96
2022-08-05T23:14:54.496Z,14.93
2022-08-05T23:17:34.637Z,14.98
2022-08-05T23:20:16.384Z,14.94
2022-08-05T23:22:47.623Z,14.88
2022-08-05T23:25:52.523Z,14.79
2022-08-05T23:28:07.968Z,14.81
2022-08-05T23:30:39.711Z,14.74
2022-08-05T23:33:16.198Z,14.68
2022-08-05T23:35:51.147Z,14.67
2022-08-05T23:38:19.575Z,14.68
2022-08-05T23:40:50.175Z,14.69
2022-08-05T23:43:25.554Z,14.66
2022-08-05T23:46:21.196Z,14.59
2022-08-05T23:48:59.300Z,14.48
2022-08-05T23:51:54.825Z,14.62
2022-08-05T23:54:26.121Z,14.62
2022-08-05T23:57:03.417Z,14.63
